AirNav   Duncan Aviation - Near you to keep you flying
 
 1328 users online  

61KY Schroder Airport
Owenton, Kentucky, USA

GOING TO OWENTON?


FAA INFORMATION EFFECTIVE 19 MAY 2022

Location

FAA Identifier: 61KY
Lat/Long: 38-33-00.2430N 084-45-47.8080W
38-33.004050N 084-45.796800W
38.5500675,-84.7632800
(estimated)
Elevation: 910 ft. / 277 m (estimated)
Variation: 03W (1990)
From city: 4 miles E of OWENTON, KY
Time zone: UTC -4 (UTC -5 during Standard Time)
Zip code: 40359

Airport Operations

Airport use: Private use. Permission required prior to landing
Activation date: 04/1993
Control tower: no
ARTCC: INDIANAPOLIS CENTER
FSS: LOUISVILLE FLIGHT SERVICE STATION
Attendance: UNATNDD
Wind indicator: yes
Segmented circle: no

Airport Communications

WX AWOS-3 at K62 (20 nm NE): 123.825 (859-654-1345)

Nearby radio navigation aids

VOR radial/distance  VOR name  Freq  Var
FLMr258/22.0FALMOUTH VOR/DME117.0004W
FFTr020/(23.1)FRANKFORT VOR109.4003W
CVGr190/28.1CINCINNATI VORTAC117.3004W
HYKr339/37.6LEXINGTON VOR/DME112.6000E

Airport Services

Runway Information

Runway 17/35

Dimensions: 1900 x 60 ft. / 579 x 18 m
Surface: turf
RUNWAY 17  RUNWAY 35
Traffic pattern: leftleft
Displaced threshold: 100 ft.486 ft.
Obstructions: 5 ft. fence44 ft. road, 545 ft. from runway

Airport Ownership and Management from official FAA records

Ownership: Privately-owned
Owner: URBAN SCHRODER
425 HIGHLAND AVE
FT. MITCHELL, KY 41017
Phone 859-391-1924
Manager: URBAN SCHRODER
425 HIGHLAND AVE
FT. MITCHELL, KY 41017
Phone 859-391-1924

Airport Operational Statistics

Aircraft based on the field: 1
Single engine airplanes: 1
    

Additional Remarks

FOR CD CTC CINCINNATI APCH AT 859-372-6440

Instrument Procedures

There are no published instrument procedures at 61KY.

Some nearby airports with instrument procedures:

K62 - Gene Snyder Airport (20 nm NE)
KFFT - Capital City Airport (23 nm S)
27K - Georgetown-Scott County Regional Airport (24 nm SE)
0I8 - Cynthiana-Harrison County Airport (25 nm SE)
KCVG - Cincinnati/Northern Kentucky International Airport (30 nm N)
 
Loc | Ops | Rwys | IFR | FBO | Links
Com | Nav | Svcs | Stats | Notes
Area around 61KY (Schroder Airport)
 
Road maps at: MapQuest Bing Google
 
Aerial photo
No photo
 
Sectional chart

 
Airport distance calculator
Flying to Schroder Airport? Find the distance to fly.

From to 61KY

Sunrise and sunset
Times for 27-May-2022
 Local
(UTC-4)
 Zulu
(UTC)
Morning civil twilight05:4909:49
Sunrise06:2010:20
Sunset20:5300:53
Evening civil twilight21:2301:23

Current date and time
Zulu (UTC)  27-May-2022 21:22:28
Local (UTC-4)  27-May-2022 17:22:28
 
METAR
KK62 
20nm NE 
272055Z AUTO 26006KT 10SM -RA SCT017 SCT039 16/14 A2979 RMK AO2
KFFT 
23nm S 
272053Z AUTO VRB06KT 10SM FEW029 FEW050 BKN100 21/15 A2980 RMK AO2 RAE14 SLP085 P0001 60003 T02060150 56001
K27K 
24nm SE 
272055Z AUTO 26005KT 10SM 17/16 A2980 RMK AO1
KCVG 
30nm N 
272052Z 26008KT 9SM -TSRA FEW020CB BKN090 OVC110 16/16 A2977 RMK AO2 RAB14 TSB49 SLP077 OCNL LTGIC N-NE TS N-NE MOV E P0001 60001 T01610156 55002
KLEX 
32nm S 
272101Z 33006G20KT 4SM -RA FEW034 SCT048 BKN060 16/13 A2981 RMK AO2 WSHFT 2041 P0003 T01610128
KIMS 
35nm W 
272055Z AUTO 26008KT 10SM SCT055 SCT075 SCT100 20/15 A2980 RMK AO2 P0002
KLUK 
37nm NE 
272053Z 30014KT 7SM VCTS -RA FEW027 BKN034 BKN048 18/14 A2978 RMK AO2 RAE05B42 SLP082 P0001 60007 T01780144 55002
TAF
KCVG 
30nm N 
271727Z 2718/2824 23008G18KT 6SM -SHRA VCTS BKN035CB FM272200 26007KT P6SM VCSH BKN045 FM280000 25005KT P6SM VCSH SCT015 BKN025 FM280400 26005KT P6SM BKN009 FM281200 30005KT P6SM BKN015 FM281500 27005KT P6SM BKN022 FM281700 25005KT P6SM BKN035
KLEX 
32nm S 
271730Z 2718/2818 24012G18KT P6SM VCSH FEW025 BKN040 FM280000 27010G15KT P6SM BKN028 FM280200 27008G12KT P6SM OVC019 FM280700 28005KT P6SM OVC009 FM281500 28007KT P6SM OVC015
KLUK 
37nm NE 
271727Z 2718/2818 22008G18KT 6SM -SHRA VCTS BKN035CB FM272200 26007KT P6SM VCSH BKN045 FM280000 25005KT P6SM VCSH SCT015 BKN025 FM280400 26005KT P6SM BKN009 FM281200 30005KT P6SM BKN015 FM281500 27005KT P6SM BKN022 FM281700 25005KT P6SM BKN035
NOTAMs
Click for the latest NOTAMs
NOTAMs are issued by the DoD/FAA and will open in a separate window not controlled by AirNav.

 

 
 

Would you like to see your business listed on this page?

 If your business provides an interesting product or service to pilots, flight crews, aircraft, or users of the Schroder Airport, you should consider listing it here.  To start the listing process, click on the button below
 
Add a business
 

Other Pages about Schroder Airport

Update a link
 
Copyright © AirNav, LLC. All rights reserved. Privacy Policy  Contact